Terminal Aerodrome Forecast
Issued by NWS

Home | Current Version | Previous Version | Text Only | Print | Product List | Glossary On
Versions: 1 2 3 4 5 6 7 8 9 10 11 12 13 14 15 16 17 18 19 20 21 22 23 24 25 26 27 28 29 30 31 32
000
FTUS46 KLOX 291731
TAFLAX
TAF
KLAX 291731Z 2918/3024 VRB05KT 5SM HZ SCT015 BKN150
     FM292000 26011KT P6SM SKC
     FM300300 25006KT P6SM BKN012
     FM300900 VRB03KT P6SM OVC009
     FM301400 VRB03KT 5SM BR OVC010
     FM301700 25005KT 5SM HZ BKN012
     FM302100 25010KT 6SM HZ FEW250=

USA.gov is the U.S. government's official web portal to all federal, state and local government web resources and services.